Time;durP1;ratioP1;P1;durP2;ratioP2;P2;SDS_P1;SDS_P2;PMS_P1;PMS_P2;Temp;Humidity;BMP_temperature;BMP_pressure;BME280_temperature;BME280_humidity;BME280_pressure;Samples;Min_cycle;Max_cycle;Signal;HPM_P1;HPM_P2
2022/11/30 13:30:01;;;;;;;8.00;5.35;;;8.70;92.70;;;;;;5113688;27;20561;-51
2022/11/30 13:32:34;;;;;;;8.23;5.57;;;8.80;93.40;;;;;;5116129;27;20218;-49
2022/11/30 13:35:42;;;;;;;8.60;5.35;;;8.80;93.50;;;;;;5074489;27;20213;-49
2022/11/30 13:38:18;;;;;;;6.78;5.30;;;8.80;93.50;;;;;;5026307;28;20688;-53
2022/11/30 13:41:07;;;;;;;6.07;4.28;;;8.80;93.60;;;;;;5019492;28;20252;-49
2022/11/30 13:43:41;;;;;;;7.13;4.32;;;8.80;93.50;;;;;;5030833;28;20224;-52
2022/11/30 13:46:20;;;;;;;8.55;5.15;;;8.80;93.50;;;;;;5021223;28;20220;-53
2022/11/30 13:48:49;;;;;;;19.15;11.13;;;8.90;93.50;;;;;;5048570;28;20218;-55
2022/11/30 13:51:36;;;;;;;12.27;8.80;;;8.80;93.70;;;;;;5022602;28;21269;-52
2022/11/30 13:54:42;;;;;;;13.90;9.45;;;8.90;93.60;;;;;;5019911;28;20472;-54
2022/11/30 13:57:34;;;;;;;12.07;9.23;;;8.80;93.60;;;;;;5021976;28;20217;-50
2022/11/30 14:00:41;;;;;;;12.10;8.93;;;8.80;93.60;;;;;;5021831;28;20478;-52
2022/11/30 14:03:23;;;;;;;13.27;8.90;;;8.80;93.50;;;;;;5001987;28;20229;-50
2022/11/30 14:05:52;;;;;;;11.38;8.77;;;8.80;93.50;;;;;;5022193;28;20460;-51
2022/11/30 14:08:39;;;;;;;13.45;8.20;;;8.90;93.50;;;;;;5010841;28;20210;-53
2022/11/30 14:11:38;;;;;;;10.77;8.15;;;8.90;93.40;;;;;;5020093;28;20225;-52
2022/11/30 14:14:42;;;;;;;7.50;6.60;;;8.90;93.30;;;;;;5020859;28;20221;-51
2022/11/30 14:17:26;;;;;;;8.00;6.63;;;8.90;93.30;;;;;;5022072;28;20496;-54
2022/11/30 14:20:02;;;;;;;10.70;6.80;;;8.90;93.20;;;;;;5023596;28;20482;-51
2022/11/30 14:22:31;;;;;;;15.00;8.47;;;8.90;93.20;;;;;;5022550;28;20776;-54
2022/11/30 14:25:01;;;;;;;11.93;7.40;;;8.90;93.20;;;;;;5027541;28;20521;-51
2022/11/30 14:27:31;;;;;;;9.40;7.07;;;8.90;93.10;;;;;;5042957;28;20443;-52
2022/11/30 14:30:03;;;;;;;8.97;6.80;;;8.90;93.10;;;;;;5038119;28;20532;-55
2022/11/30 14:32:37;;;;;;;7.70;5.67;;;8.90;93.10;;;;;;5042125;28;20459;-53
2022/11/30 14:35:12;;;;;;;8.10;6.30;;;8.90;93.00;;;;;;5041001;28;20478;-51
2022/11/30 14:37:44;;;;;;;10.80;7.10;;;8.90;93.00;;;;;;5034405;28;20730;-51
2022/11/30 14:40:18;;;;;;;8.57;6.87;;;8.90;93.00;;;;;;5046443;28;20229;-54
2022/11/30 14:42:50;;;;;;;7.97;6.00;;;8.90;92.90;;;;;;5061970;28;20442;-50
2022/11/30 14:45:23;;;;;;;9.55;6.43;;;8.90;92.90;;;;;;5016703;28;20469;-52
2022/11/30 14:47:53;;;;;;;8.00;6.17;;;8.90;92.90;;;;;;5008606;28;20275;-52
2022/11/30 14:50:26;;;;;;;8.20;6.73;;;8.90;92.90;;;;;;4999909;28;20845;-49
2022/11/30 14:53:08;;;;;;;8.17;6.70;;;8.90;92.90;;;;;;5000510;28;20484;-55
2022/11/30 14:55:45;;;;;;;8.80;6.40;;;8.90;92.90;;;;;;5017845;28;20471;-50
2022/11/30 14:58:22;;;;;;;6.90;6.20;;;8.90;92.90;;;;;;5027760;28;20439;-49
2022/11/30 15:00:51;;;;;;;8.03;6.50;;;8.90;92.90;;;;;;5058427;28;20467;-54
2022/11/30 15:03:25;;;;;;;10.07;7.00;;;8.90;93.00;;;;;;5028319;28;20455;-52
2022/11/30 15:05:57;;;;;;;7.23;5.53;;;8.90;92.90;;;;;;5027372;28;20534;-51
2022/11/30 15:08:32;;;;;;;8.90;6.33;;;8.90;92.90;;;;;;5012241;28;20832;-53
2022/11/30 15:11:05;;;;;;;9.03;6.27;;;8.90;92.90;;;;;;5027063;28;20965;-52
2022/11/30 15:13:34;;;;;;;8.40;5.77;;;8.90;92.80;;;;;;5019598;28;20455;-52
2022/11/30 15:16:09;;;;;;;6.50;5.63;;;8.90;92.80;;;;;;5025790;28;20498;-50
2022/11/30 15:18:39;;;;;;;7.07;5.20;;;8.90;92.70;;;;;;5021604;28;20883;-51
2022/11/30 15:21:16;;;;;;;7.67;5.80;;;8.90;92.80;;;;;;5017015;28;20476;-51
2022/11/30 15:23:44;;;;;;;6.80;5.60;;;8.90;92.80;;;;;;5017573;28;20475;-53
2022/11/30 15:26:22;;;;;;;8.43;5.80;;;8.90;92.70;;;;;;5008461;28;20480;-51
2022/11/30 15:28:57;;;;;;;8.47;6.37;;;8.90;93.20;;;;;;5026958;28;20566;-53
2022/11/30 15:31:33;;;;;;;7.80;6.10;;;8.90;93.20;;;;;;5041467;28;20503;-49
2022/11/30 15:34:03;;;;;;;6.90;6.23;;;8.90;93.30;;;;;;5008410;28;20662;-49
2022/11/30 15:36:36;;;;;;;8.00;5.43;;;9.00;93.40;;;;;;5034438;28;20532;-52
2022/11/30 15:39:08;;;;;;;9.33;6.80;;;9.00;93.50;;;;;;5026999;28;20573;-49
2022/11/30 15:41:36;;;;;;;6.90;5.53;;;9.00;93.50;;;;;;5026570;28;20534;-50
2022/11/30 15:44:22;;;;;;;9.80;6.80;;;9.00;93.50;;;;;;5029178;28;20528;-49
2022/11/30 15:46:58;;;;;;;12.38;11.02;;;9.10;93.50;;;;;;5055556;28;20863;-51
2022/11/30 15:49:28;;;;;;;12.63;9.73;;;9.10;93.80;;;;;;5020365;28;20471;-53
2022/11/30 15:52:07;;;;;;;15.93;9.20;;;9.10;93.70;;;;;;5019122;28;20498;-51
2022/11/30 15:54:43;;;;;;;13.97;10.37;;;9.10;93.70;;;;;;5027588;28;20970;-49
2022/11/30 15:57:13;;;;;;;12.10;8.47;;;9.10;93.60;;;;;;5027188;28;20434;-50
2022/11/30 15:59:43;;;;;;;10.73;8.13;;;9.10;93.50;;;;;;5020741;28;20495;-51
2022/11/30 16:02:27;;;;;;;10.60;7.77;;;9.10;93.50;;;;;;5023062;28;20436;-51
2022/11/30 16:05:22;;;;;;;9.57;7.50;;;9.20;93.40;;;;;;5027057;28;20927;-50
2022/11/30 16:07:54;;;;;;;10.80;8.43;;;9.20;93.30;;;;;;5025520;28;20543;-49
2022/11/30 16:10:25;;;;;;;9.70;7.53;;;9.20;93.30;;;;;;5041317;28;20479;-53
2022/11/30 16:12:55;;;;;;;10.97;7.97;;;9.20;93.20;;;;;;5007340;28;20440;-52
2022/11/30 16:15:26;;;;;;;8.67;6.70;;;9.20;93.20;;;;;;5005179;28;20468;-50
2022/11/30 16:17:58;;;;;;;8.23;6.60;;;9.20;93.20;;;;;;5006867;28;20429;-52
2022/11/30 16:20:28;;;;;;;8.30;7.20;;;9.20;93.10;;;;;;5008851;28;20463;-53
2022/11/30 16:22:58;;;;;;;11.20;9.13;;;9.20;93.00;;;;;;5025522;28;20505;-51
2022/11/30 16:25:33;;;;;;;10.40;7.97;;;9.20;93.10;;;;;;5016680;28;20253;-52
2022/11/30 16:28:02;;;;;;;10.00;7.63;;;9.20;93.10;;;;;;5057191;28;20502;-52
2022/11/30 16:30:31;;;;;;;12.73;7.63;;;9.20;93.10;;;;;;5023981;28;20476;-51
2022/11/30 16:33:00;;;;;;;7.93;7.10;;;9.20;93.00;;;;;;5025979;28;20579;-51
2022/11/30 16:35:37;;;;;;;9.73;7.50;;;9.20;93.00;;;;;;5025852;28;20967;-51
2022/11/30 16:38:07;;;;;;;9.20;7.10;;;9.20;93.00;;;;;;5025750;28;20825;-50
2022/11/30 16:40:35;;;;;;;8.83;7.03;;;9.20;93.40;;;;;;5024728;28;20467;-51
2022/11/30 16:43:06;;;;;;;10.00;7.10;;;9.20;92.90;;;;;;5017701;28;20488;-51
2022/11/30 16:45:36;;;;;;;9.00;7.00;;;9.20;92.90;;;;;;5023716;28;20464;-52
2022/11/30 16:48:06;;;;;;;8.00;5.90;;;9.20;92.80;;;;;;5025918;28;20527;-49
2022/11/30 16:50:34;;;;;;;8.47;6.03;;;9.20;92.80;;;;;;5013885;28;20984;-53
2022/11/30 16:53:04;;;;;;;9.37;6.50;;;9.20;92.80;;;;;;5005925;28;20457;-52
2022/11/30 16:55:36;;;;;;;7.03;6.20;;;9.20;92.90;;;;;;5025676;28;20480;-51
2022/11/30 16:58:05;;;;;;;8.00;6.90;;;9.20;92.80;;;;;;4997766;28;20437;-50
2022/11/30 17:00:35;;;;;;;8.13;6.60;;;9.20;92.80;;;;;;5010559;28;20477;-51
2022/11/30 17:03:08;;;;;;;9.17;6.70;;;9.20;92.80;;;;;;5022190;28;20518;-51
2022/11/30 17:05:36;;;;;;;9.13;6.40;;;9.20;92.80;;;;;;5040711;28;20468;-49
2022/11/30 17:08:05;;;;;;;8.67;6.10;;;9.20;92.80;;;;;;4997980;28;20452;-50
2022/11/30 17:10:36;;;;;;;7.13;6.43;;;9.20;92.80;;;;;;5038143;28;20567;-54
2022/11/30 17:13:06;;;;;;;8.37;5.87;;;9.20;92.70;;;;;;5006257;28;20457;-51
2022/11/30 17:15:34;;;;;;;7.60;6.30;;;9.20;92.80;;;;;;5010504;28;21066;-52
2022/11/30 17:18:03;;;;;;;7.37;6.47;;;9.20;92.70;;;;;;5055437;28;20932;-50
2022/11/30 17:20:31;;;;;;;10.70;7.90;;;9.20;92.70;;;;;;5051529;28;20448;-51
2022/11/30 17:23:00;;;;;;;8.17;5.50;;;9.20;92.70;;;;;;5026096;28;20822;-48
2022/11/30 17:25:28;;;;;;;7.80;5.77;;;9.20;92.70;;;;;;5024254;28;20925;-50
2022/11/30 17:27:59;;;;;;;8.37;6.47;;;9.20;92.70;;;;;;5017125;28;20815;-50
2022/11/30 17:30:28;;;;;;;6.67;5.67;;;9.20;92.70;;;;;;5038376;28;20803;-49
2022/11/30 17:32:56;;;;;;;6.70;5.30;;;9.20;92.70;;;;;;5022251;28;20464;-52
2022/11/30 17:35:25;;;;;;;6.17;5.20;;;9.20;92.70;;;;;;4992172;28;20465;-51
2022/11/30 17:37:54;;;;;;;7.20;5.70;;;9.20;92.70;;;;;;5035476;28;20444;-51
2022/11/30 17:40:23;;;;;;;6.83;6.20;;;9.20;92.70;;;;;;5014286;28;20464;-52
2022/11/30 17:42:51;;;;;;;6.23;5.60;;;9.20;92.70;;;;;;5025556;28;20846;-54
2022/11/30 17:45:21;;;;;;;7.77;5.90;;;9.20;92.70;;;;;;5008827;28;20494;-52
2022/11/30 17:47:50;;;;;;;8.40;5.80;;;9.20;92.70;;;;;;5025429;28;20451;-50
2022/11/30 17:50:18;;;;;;;7.00;5.53;;;9.20;92.70;;;;;;5015408;28;20534;-51
2022/11/30 17:52:48;;;;;;;6.50;5.40;;;9.20;92.70;;;;;;5005004;28;20478;-49
2022/11/30 17:55:17;;;;;;;6.73;5.23;;;9.20;92.70;;;;;;5004987;28;21022;-51
2022/11/30 17:57:46;;;;;;;7.70;5.27;;;9.20;92.60;;;;;;5005814;28;20832;-52
2022/11/30 18:00:15;;;;;;;5.67;4.83;;;9.20;92.60;;;;;;4995704;28;20473;-51
2022/11/30 18:02:49;;;;;;;5.77;5.00;;;9.20;92.70;;;;;;5006091;28;20443;-50
2022/11/30 18:05:18;;;;;;;7.63;4.43;;;9.20;92.70;;;;;;4997264;28;20627;-49
2022/11/30 18:07:47;;;;;;;5.60;5.03;;;9.20;92.60;;;;;;4998803;28;20440;-50
2022/11/30 18:10:16;;;;;;;7.50;5.33;;;9.20;92.70;;;;;;5008675;28;21006;-52
2022/11/30 18:12:45;;;;;;;8.07;6.10;;;9.20;92.60;;;;;;5025837;28;20486;-49
2022/11/30 18:15:13;;;;;;;7.00;4.77;;;9.20;92.60;;;;;;5024840;28;20500;-51
2022/11/30 18:17:42;;;;;;;6.20;5.60;;;9.20;92.60;;;;;;5029321;28;20428;-49
2022/11/30 18:20:12;;;;;;;6.07;4.77;;;9.20;92.60;;;;;;5026989;28;20485;-51
2022/11/30 18:22:41;;;;;;;7.23;5.23;;;9.20;92.60;;;;;;5023797;28;20430;-55
2022/11/30 18:25:10;;;;;;;5.90;5.30;;;9.20;92.60;;;;;;5023760;28;20507;-51
2022/11/30 18:27:38;;;;;;;5.97;5.37;;;9.20;92.60;;;;;;5008874;28;20440;-51
2022/11/30 18:30:08;;;;;;;5.20;4.70;;;9.20;92.60;;;;;;5007924;28;21002;-52
2022/11/30 18:32:37;;;;;;;6.60;4.97;;;9.20;92.60;;;;;;5009113;28;20425;-54
2022/11/30 18:35:07;;;;;;;6.17;5.30;;;9.20;92.60;;;;;;5007223;28;20856;-52
2022/11/30 18:37:37;;;;;;;6.13;5.47;;;9.20;92.60;;;;;;5024134;28;21062;-51
2022/11/30 18:40:07;;;;;;;4.97;4.47;;;9.20;92.60;;;;;;5018741;28;20538;-52
2022/11/30 18:42:36;;;;;;;5.37;4.80;;;9.20;92.60;;;;;;5029023;28;20437;-50
2022/11/30 18:45:05;;;;;;;5.63;4.47;;;9.20;92.60;;;;;;5018728;28;21047;-49
2022/11/30 18:47:34;;;;;;;4.67;4.20;;;9.20;92.60;;;;;;5028415;28;20439;-52
2022/11/30 18:50:03;;;;;;;5.60;4.93;;;9.10;92.60;;;;;;5011643;28;20480;-51
2022/11/30 18:52:32;;;;;;;6.07;4.80;;;9.10;92.60;;;;;;5009029;28;20441;-49
2022/11/30 18:55:03;;;;;;;6.80;5.37;;;9.20;92.60;;;;;;5007146;28;20473;-50
2022/11/30 18:57:31;;;;;;;5.53;4.50;;;9.10;92.60;;;;;;4992278;28;20816;-48
2022/11/30 19:00:00;;;;;;;7.37;4.33;;;9.10;92.60;;;;;;5006639;28;20498;-51
2022/11/30 19:02:28;;;;;;;5.83;4.60;;;9.20;92.60;;;;;;5008536;28;20429;-50
2022/11/30 19:04:57;;;;;;;8.03;5.50;;;9.10;92.60;;;;;;5008395;28;21000;-49
2022/11/30 19:07:25;;;;;;;6.90;4.33;;;9.10;92.60;;;;;;5008903;28;20537;-49
2022/11/30 19:09:54;;;;;;;6.37;5.77;;;9.10;92.60;;;;;;5008809;28;20483;-50
2022/11/30 19:12:25;;;;;;;5.90;5.30;;;9.10;92.60;;;;;;5009657;28;20487;-51
2022/11/30 19:14:53;;;;;;;5.27;4.40;;;9.10;92.60;;;;;;5006582;28;20488;-50
2022/11/30 19:17:22;;;;;;;6.23;4.60;;;9.10;92.60;;;;;;5041261;28;20451;-51
2022/11/30 19:19:50;;;;;;;8.10;5.50;;;9.10;92.60;;;;;;5008511;28;20987;-50
2022/11/30 19:22:19;;;;;;;7.37;4.67;;;9.10;92.60;;;;;;5006881;28;20502;-50
2022/11/30 19:24:48;;;;;;;10.57;6.17;;;9.10;92.60;;;;;;5007486;28;20542;-50
2022/11/30 19:27:17;;;;;;;6.40;5.20;;;9.10;92.60;;;;;;4999857;28;20441;-50
2022/11/30 19:29:47;;;;;;;7.50;5.60;;;9.10;92.60;;;;;;5002965;28;20488;-49
2022/11/30 19:32:16;;;;;;;5.90;4.67;;;9.10;92.60;;;;;;5023391;28;20473;-48
2022/11/30 19:34:44;;;;;;;5.37;3.70;;;9.10;92.60;;;;;;5000622;28;20812;-49
2022/11/30 19:37:13;;;;;;;5.90;5.30;;;9.10;92.60;;;;;;5003291;28;20441;-49
2022/11/30 19:39:42;;;;;;;5.87;4.90;;;9.10;92.60;;;;;;5007088;28;20459;-50
2022/11/30 19:42:11;;;;;;;4.87;4.47;;;9.10;92.60;;;;;;4997277;28;20438;-51
2022/11/30 19:44:39;;;;;;;5.40;4.70;;;9.10;92.50;;;;;;4996972;28;20555;-51
2022/11/30 19:47:09;;;;;;;7.63;5.83;;;9.10;92.50;;;;;;5022768;28;20433;-50
2022/11/30 19:49:37;;;;;;;6.87;5.50;;;9.10;92.60;;;;;;5018714;28;20438;-49
2022/11/30 19:52:06;;;;;;;5.60;4.97;;;9.10;92.50;;;;;;5004995;28;20476;-50
2022/11/30 19:54:34;;;;;;;5.63;4.40;;;9.10;92.60;;;;;;5006738;28;20483;-51
2022/11/30 19:57:03;;;;;;;6.37;5.40;;;9.10;92.50;;;;;;4999418;28;20454;-50
2022/11/30 19:59:32;;;;;;;4.90;4.40;;;9.10;92.50;;;;;;5006430;28;20649;-50
2022/11/30 20:02:00;;;;;;;7.13;5.67;;;9.10;92.60;;;;;;5023632;28;20491;-50
2022/11/30 20:04:30;;;;;;;4.37;3.97;;;9.10;92.50;;;;;;4994220;28;20480;-50
2022/11/30 20:07:00;;;;;;;6.20;5.60;;;9.10;92.50;;;;;;5029527;28;20437;-52
2022/11/30 20:09:30;;;;;;;7.10;4.87;;;9.10;92.60;;;;;;4999646;28;20848;-52
2022/11/30 20:11:58;;;;;;;6.27;5.13;;;9.10;92.50;;;;;;5006765;28;20477;-50
2022/11/30 20:14:27;;;;;;;7.77;5.87;;;9.10;92.60;;;;;;5030885;28;20549;-49
2022/11/30 20:16:56;;;;;;;5.30;4.80;;;9.10;92.50;;;;;;5007127;28;20924;-49
2022/11/30 20:19:24;;;;;;;5.70;4.23;;;9.10;92.60;;;;;;5003430;28;20798;-50
2022/11/30 20:21:54;;;;;;;7.20;4.97;;;9.10;92.60;;;;;;5028595;28;20561;-51
2022/11/30 20:24:23;;;;;;;7.47;6.60;;;9.10;92.50;;;;;;5006777;28;20535;-49
2022/11/30 20:26:51;;;;;;;6.43;5.17;;;9.10;92.50;;;;;;5027049;28;20447;-50
2022/11/30 20:29:20;;;;;;;8.10;5.50;;;9.10;92.50;;;;;;5025116;28;20948;-50
2022/11/30 20:31:49;;;;;;;6.67;4.83;;;9.10;92.50;;;;;;5018394;28;20525;-50
2022/11/30 20:34:18;;;;;;;6.17;5.20;;;9.10;92.60;;;;;;5026156;28;20463;-48
2022/11/30 20:36:47;;;;;;;5.47;4.90;;;9.10;92.50;;;;;;5026359;28;20435;-51
2022/11/30 20:39:17;;;;;;;6.23;5.00;;;9.10;92.50;;;;;;5024835;28;20629;-51
2022/11/30 20:41:45;;;;;;;8.80;5.47;;;9.10;92.50;;;;;;5025994;28;20758;-49
2022/11/30 20:44:15;;;;;;;6.73;4.60;;;9.10;92.60;;;;;;5016975;28;21290;-50
2022/11/30 20:46:44;;;;;;;7.80;5.60;;;9.10;92.50;;;;;;5006107;28;20955;-50
2022/11/30 20:49:16;;;;;;;5.60;5.00;;;9.10;92.50;;;;;;5006790;28;21023;-49
2022/11/30 20:51:45;;;;;;;7.50;5.27;;;9.10;92.50;;;;;;5022799;28;20502;-50
2022/11/30 20:54:16;;;;;;;6.90;5.20;;;9.10;92.50;;;;;;5017007;28;20938;-50
2022/11/30 20:56:45;;;;;;;6.50;5.63;;;9.10;92.50;;;;;;5026604;28;20490;-49
2022/11/30 20:59:22;;;;;;;5.60;4.87;;;9.10;92.50;;;;;;5005571;28;20815;-48
2022/11/30 21:01:52;;;;;;;7.50;6.23;;;9.10;92.50;;;;;;5016515;28;20884;-48
2022/11/30 21:04:21;;;;;;;5.87;5.10;;;9.10;92.50;;;;;;5010685;28;20456;-51
2022/11/30 21:06:50;;;;;;;9.73;5.43;;;9.10;92.50;;;;;;5018513;28;20436;-49
2022/11/30 21:09:20;;;;;;;6.03;5.40;;;9.10;92.50;;;;;;5013894;28;20464;-49
2022/11/30 21:11:49;;;;;;;6.27;4.90;;;9.10;92.50;;;;;;5031209;28;20506;-49
2022/11/30 21:14:19;;;;;;;9.30;6.17;;;9.10;92.50;;;;;;5023082;28;20527;-49
2022/11/30 21:16:48;;;;;;;6.60;5.10;;;9.10;92.40;;;;;;5023130;28;20472;-50
2022/11/30 21:19:17;;;;;;;5.30;4.80;;;9.10;92.50;;;;;;5006416;28;20546;-49
2022/11/30 21:21:46;;;;;;;7.00;5.47;;;9.10;92.90;;;;;;5006061;28;20578;-49
2022/11/30 21:24:15;;;;;;;6.90;5.70;;;9.10;92.40;;;;;;5005424;28;20468;-50
2022/11/30 21:26:45;;;;;;;5.73;4.67;;;9.10;92.50;;;;;;5025166;28;20464;-50
2022/11/30 21:29:15;;;;;;;6.50;5.33;;;9.10;92.50;;;;;;5009443;28;20455;-49
2022/11/30 21:31:44;;;;;;;6.70;5.10;;;9.10;92.50;;;;;;5040516;28;20472;-50
2022/11/30 21:34:14;;;;;;;7.23;5.63;;;9.10;92.50;;;;;;5019548;28;20830;-49
2022/11/30 21:36:42;;;;;;;6.90;5.30;;;9.10;92.40;;;;;;5025360;28;20456;-50
2022/11/30 21:39:14;;;;;;;7.67;5.60;;;9.10;92.40;;;;;;5009927;28;20452;-50
2022/11/30 21:41:44;;;;;;;7.00;5.50;;;9.10;92.40;;;;;;5024896;28;20518;-50
2022/11/30 21:44:14;;;;;;;6.33;5.60;;;9.10;92.40;;;;;;5024600;28;20440;-50
2022/11/30 21:46:45;;;;;;;5.70;4.53;;;9.10;92.40;;;;;;5041828;28;20457;-51
2022/11/30 21:49:15;;;;;;;8.27;5.60;;;9.10;92.40;;;;;;5017969;28;20924;-51
2022/11/30 21:51:44;;;;;;;6.93;5.37;;;9.10;92.40;;;;;;5021009;28;20551;-49
2022/11/30 21:54:13;;;;;;;7.90;6.30;;;9.10;92.40;;;;;;5025491;28;20457;-52
2022/11/30 21:56:43;;;;;;;6.83;5.63;;;9.10;92.40;;;;;;5029263;28;20467;-50
2022/11/30 21:59:14;;;;;;;7.13;5.60;;;9.10;92.40;;;;;;5020102;28;20472;-49
2022/11/30 22:01:44;;;;;;;7.33;5.80;;;9.10;92.40;;;;;;5037661;28;20452;-49
2022/11/30 22:04:14;;;;;;;7.13;5.10;;;9.10;92.40;;;;;;5029259;28;20452;-49
2022/11/30 22:06:43;;;;;;;7.57;6.70;;;9.10;92.40;;;;;;5020562;28;20459;-49
2022/11/30 22:09:13;;;;;;;7.87;6.00;;;9.10;92.40;;;;;;5025898;28;20494;-49
2022/11/30 22:11:43;;;;;;;8.13;6.07;;;9.10;92.40;;;;;;5015439;28;20848;-50
2022/11/30 22:14:15;;;;;;;8.33;5.70;;;9.10;92.40;;;;;;5027580;28;20451;-51
2022/11/30 22:16:44;;;;;;;9.40;6.80;;;9.10;92.40;;;;;;5027971;28;20460;-50
2022/11/30 22:19:14;;;;;;;5.60;4.60;;;9.10;92.30;;;;;;5028926;28;20494;-51
2022/11/30 22:21:43;;;;;;;8.83;5.90;;;9.10;92.40;;;;;;5021416;28;20460;-50
2022/11/30 22:24:18;;;;;;;7.80;5.37;;;9.10;92.40;;;;;;5027817;28;20559;-49
2022/11/30 22:26:47;;;;;;;7.63;5.40;;;9.00;92.30;;;;;;5027880;28;20464;-49
2022/11/30 22:29:19;;;;;;;6.20;5.20;;;9.10;92.30;;;;;;5019687;28;20478;-49
2022/11/30 22:31:50;;;;;;;14.43;9.07;;;9.10;92.30;;;;;;5022608;28;20502;-51
2022/11/30 22:34:19;;;;;;;11.00;6.20;;;9.10;92.40;;;;;;5030747;28;20519;-51
2022/11/30 22:36:47;;;;;;;6.20;4.97;;;9.00;92.30;;;;;;5029692;28;20543;-51
2022/11/30 22:39:18;;;;;;;6.23;4.73;;;9.10;92.30;;;;;;5027825;28;20444;-51
2022/11/30 22:41:48;;;;;;;8.30;5.70;;;9.10;92.30;;;;;;5021843;28;20447;-51
2022/11/30 22:44:25;;;;;;;6.80;5.60;;;9.10;92.30;;;;;;5052718;28;20593;-49
2022/11/30 22:46:54;;;;;;;7.50;6.10;;;9.10;92.30;;;;;;5029126;28;20839;-51
2022/11/30 22:49:23;;;;;;;6.50;5.27;;;9.00;92.30;;;;;;5023497;28;20889;-48
2022/11/30 22:51:52;;;;;;;7.97;5.73;;;9.00;92.30;;;;;;5030655;28;20681;-49
2022/11/30 22:54:20;;;;;;;9.67;6.43;;;9.00;92.30;;;;;;5026278;28;21000;-51
2022/11/30 22:56:49;;;;;;;7.33;5.87;;;9.00;92.30;;;;;;5025845;28;20468;-49
2022/11/30 22:59:17;;;;;;;7.53;6.40;;;9.00;92.30;;;;;;5030561;28;20460;-51
2022/11/30 23:01:50;;;;;;;7.70;5.83;;;9.00;92.30;;;;;;5013875;28;20455;-51
2022/11/30 23:04:21;;;;;;;6.80;5.40;;;9.00;92.30;;;;;;5027777;28;20472;-50
2022/11/30 23:06:50;;;;;;;7.37;5.60;;;9.00;92.30;;;;;;5022883;28;20453;-49
2022/11/30 23:09:21;;;;;;;7.80;5.10;;;9.00;92.30;;;;;;5040550;28;20447;-49
2022/11/30 23:11:51;;;;;;;8.20;5.63;;;9.00;92.30;;;;;;5031211;28;20493;-49
2022/11/30 23:14:19;;;;;;;7.70;5.63;;;9.00;92.20;;;;;;5038967;28;20452;-51
2022/11/30 23:16:49;;;;;;;8.20;6.00;;;9.00;92.30;;;;;;5038261;28;20459;-51
2022/11/30 23:19:18;;;;;;;7.50;5.27;;;9.00;92.30;;;;;;5034564;28;20433;-51
2022/11/30 23:21:48;;;;;;;8.90;6.00;;;9.00;92.20;;;;;;5032824;28;20478;-51
2022/11/30 23:24:20;;;;;;;8.67;5.93;;;9.00;92.20;;;;;;5032754;28;20487;-51
2022/11/30 23:26:49;;;;;;;6.87;5.60;;;9.00;92.20;;;;;;5036128;28;20563;-51
2022/11/30 23:29:18;;;;;;;8.50;6.47;;;9.00;92.30;;;;;;5032628;28;21075;-50
2022/11/30 23:31:47;;;;;;;7.90;5.80;;;9.00;92.20;;;;;;5043546;28;20475;-51
2022/11/30 23:34:20;;;;;;;7.80;5.87;;;9.00;92.30;;;;;;5027494;28;20534;-50
2022/11/30 23:36:50;;;;;;;9.43;5.93;;;9.00;92.20;;;;;;5027367;28;20464;-51
2022/11/30 23:39:20;;;;;;;6.93;5.50;;;9.00;92.20;;;;;;5025148;28;20455;-51
2022/11/30 23:41:49;;;;;;;7.03;5.50;;;9.00;92.20;;;;;;5026894;28;20456;-50
2022/11/30 23:44:19;;;;;;;8.40;4.93;;;9.00;92.30;;;;;;5025144;28;20464;-51
2022/11/30 23:46:48;;;;;;;8.37;5.20;;;9.00;92.20;;;;;;5008375;28;20467;-50
2022/11/30 23:49:18;;;;;;;7.67;6.50;;;9.00;92.30;;;;;;4996507;28;20438;-52
2022/11/30 23:51:47;;;;;;;5.70;5.10;;;9.00;92.30;;;;;;5016252;28;20776;-50
2022/11/30 23:54:16;;;;;;;6.57;5.03;;;9.00;92.30;;;;;;5000330;28;20551;-51
2022/11/30 23:56:44;;;;;;;7.30;5.00;;;9.00;92.20;;;;;;5006964;28;20488;-51
2022/11/30 23:59:13;;;;;;;9.40;6.00;;;9.00;92.20;;;;;;5006267;28;20902;-49
